createdAt,value
2017-04-02T00:00:20.793Z,-1.83
2017-04-02T00:01:20.774Z,-1.89
2017-04-02T00:02:20.457Z,-1.88
2017-04-02T00:03:20.740Z,-1.82
2017-04-02T00:04:20.726Z,-1.7
2017-04-02T00:05:20.711Z,-1.62
2017-04-02T00:06:20.692Z,-1.51
2017-04-02T00:07:20.676Z,-1.41
2017-04-02T00:08:20.658Z,-1.38
2017-04-02T00:09:20.647Z,-1.46
2017-04-02T00:10:20.322Z,-1.5
2017-04-02T00:11:20.609Z,-1.51
2017-04-02T00:12:20.596Z,-1.5
2017-04-02T00:13:20.573Z,-1.56
2017-04-02T00:14:20.556Z,-1.53
2017-04-02T00:15:20.536Z,-1.56
2017-04-02T00:16:20.519Z,-1.62
2017-04-02T00:17:20.503Z,-1.5
2017-04-02T00:18:20.493Z,-1.51
2017-04-02T00:19:20.468Z,-1.5
2017-04-02T00:20:20.455Z,-1.49
2017-04-02T00:21:20.136Z,-1.67
2017-04-02T00:22:20.463Z,-1.61
2017-04-02T00:23:20.407Z,-1.74
2017-04-02T00:24:20.587Z,-1.8
2017-04-02T00:25:20.371Z,-1.64
2017-04-02T00:26:20.359Z,-1.68
2017-04-02T00:27:20.033Z,-1.71
2017-04-02T00:28:20.318Z,-1.61
2017-04-02T00:29:20.301Z,-1.56
2017-04-02T00:30:20.288Z,-1.49
2017-04-02T00:31:20.267Z,-1.47
2017-04-02T00:32:20.459Z,-1.61
2017-04-02T00:33:20.233Z,-1.59
2017-04-02T00:34:20.219Z,-1.59
2017-04-02T00:35:20.199Z,-1.54
2017-04-02T00:36:20.185Z,-1.54
2017-04-02T00:37:20.169Z,-1.57
2017-04-02T00:38:20.148Z,-1.7
2017-04-02T00:39:20.132Z,-1.8
2017-04-02T00:40:20.116Z,-1.88
2017-04-02T00:41:20.103Z,-1.86
2017-04-02T00:42:20.080Z,-1.83
2017-04-02T00:43:20.063Z,-1.85
2017-04-02T00:44:19.749Z,-1.88
2017-04-02T00:45:20.034Z,-1.93
2017-04-02T00:46:20.013Z,-1.92
2017-04-02T00:47:20.000Z,-1.92
2017-04-02T00:48:19.981Z,-1.92
2017-04-02T00:49:19.963Z,-1.9
2017-04-02T00:50:19.946Z,-1.9
2017-04-02T00:51:19.930Z,-1.78
2017-04-02T00:52:19.910Z,-1.83
2017-04-02T00:53:20.110Z,-1.86
2017-04-02T00:54:19.883Z,-1.92
2017-04-02T00:55:19.862Z,-1.9
2017-04-02T00:56:19.846Z,-1.85
2017-04-02T00:57:19.828Z,-1.85
2017-04-02T00:58:33.193Z,-1.75
2017-04-02T00:59:19.800Z,-1.75
2017-04-02T01:00:19.780Z,-1.78
2017-04-02T01:01:19.467Z,-1.77
2017-04-02T01:02:34.392Z,-1.82
2017-04-02T01:03:19.931Z,-1.86
2017-04-02T01:04:19.706Z,-1.82
2017-04-02T01:05:19.695Z,-1.92
2017-04-02T01:06:19.675Z,-2.03
2017-04-02T01:07:19.657Z,-2.01
2017-04-02T01:08:19.645Z,-2.07
2017-04-02T01:09:19.623Z,-2.06
2017-04-02T01:10:19.612Z,-2.04
2017-04-02T01:11:19.593Z,-2.06
2017-04-02T01:12:19.575Z,-2.04
2017-04-02T01:13:19.563Z,-2.01
2017-04-02T01:14:19.541Z,-1.95
2017-04-02T01:15:19.535Z,-2.06
2017-04-02T01:16:19.504Z,-2.03
2017-04-02T01:17:19.488Z,-1.98
2017-04-02T01:18:19.474Z,-2.04
2017-04-02T01:19:19.456Z,-1.95
2017-04-02T01:20:19.436Z,-1.92
2017-04-02T01:21:19.125Z,-1.92
2017-04-02T01:22:19.404Z,-1.9
2017-04-02T01:23:19.390Z,-1.93
2017-04-02T01:24:19.070Z,-2
2017-04-02T01:25:19.055Z,-2.06
2017-04-02T01:26:19.337Z,-2
2017-04-02T01:27:19.321Z,-2.1
2017-04-02T01:28:19.301Z,-2.03
2017-04-02T01:29:19.283Z,-2.08
2017-04-02T01:30:19.272Z,-2.03
2017-04-02T01:31:19.254Z,-2.04
2017-04-02T01:32:19.239Z,-2.21
2017-04-02T01:33:19.430Z,-2.1
2017-04-02T01:34:19.202Z,-2.19
2017-04-02T01:35:19.185Z,-2.24
2017-04-02T01:36:19.172Z,-2.19
2017-04-02T01:37:19.148Z,-2.22
2017-04-02T01:38:19.130Z,-2.18
2017-04-02T01:39:19.118Z,-2.22
2017-04-02T01:40:19.102Z,-2.21
2017-04-02T01:41:19.078Z,-2.28
2017-04-02T01:42:19.065Z,-2.22
2017-04-02T01:43:19.048Z,-2.33
2017-04-02T01:44:19.025Z,-2.18
2017-04-02T01:45:19.015Z,-2.26
2017-04-02T01:46:18.996Z,-2.25
2017-04-02T01:47:18.977Z,-2.28
2017-04-02T01:48:18.961Z,-2.22
2017-04-02T01:49:18.641Z,-2.19
2017-04-02T01:50:18.923Z,-2.32
2017-04-02T01:51:18.911Z,-2.24
2017-04-02T01:52:18.895Z,-2.28
2017-04-02T01:53:18.871Z,-2.33
2017-04-02T01:54:18.858Z,-2.21
2017-04-02T01:55:18.844Z,-2.25
2017-04-02T01:56:18.825Z,-2.28
2017-04-02T01:57:18.809Z,-2.19
2017-04-02T01:58:18.784Z,-2.1
2017-04-02T01:59:18.772Z,-2.22
2017-04-02T02:00:18.755Z,-2.22
2017-04-02T02:01:18.773Z,-2.19
2017-04-02T02:02:32.366Z,-2.19
2017-04-02T02:03:18.710Z,-2.21
2017-04-02T02:04:18.685Z,-2.24
2017-04-02T02:05:18.667Z,-2.25
2017-04-02T02:06:18.857Z,-2.25
2017-04-02T02:07:18.635Z,-2.24
2017-04-02T02:08:18.625Z,-2.25
2017-04-02T02:09:18.600Z,-2.33
2017-04-02T02:10:18.583Z,-2.37
2017-04-02T02:11:18.767Z,-2.33
2017-04-02T02:12:18.547Z,-2.33
2017-04-02T02:13:18.572Z,-2.29
2017-04-02T02:14:18.549Z,-2.21
2017-04-02T02:15:18.501Z,-2.29
2017-04-02T02:16:18.484Z,-2.29
2017-04-02T02:17:18.463Z,-2.22
2017-04-02T02:18:18.446Z,-2.33
2017-04-02T02:19:18.178Z,-2.29
2017-04-02T02:20:18.412Z,-2.33
2017-04-02T02:21:18.395Z,-2.35
2017-04-02T02:22:18.377Z,-2.37
2017-04-02T02:23:18.360Z,-2.25
2017-04-02T02:24:18.346Z,-2.32
2017-04-02T02:25:18.326Z,-2.4
2017-04-02T02:26:18.310Z,-2.29
2017-04-02T02:27:18.296Z,-2.4
2017-04-02T02:28:18.271Z,-2.37
2017-04-02T02:29:18.259Z,-2.4
2017-04-02T02:30:18.242Z,-2.43
2017-04-02T02:31:18.222Z,-2.35
2017-04-02T02:32:18.209Z,-2.4
2017-04-02T02:33:18.183Z,-2.35
2017-04-02T02:34:18.169Z,-2.35
2017-04-02T02:35:18.154Z,-2.38
2017-04-02T02:36:17.838Z,-2.32
2017-04-02T02:37:18.116Z,-2.38
2017-04-02T02:38:18.104Z,-2.33
2017-04-02T02:39:18.083Z,-2.44
2017-04-02T02:40:18.065Z,-2.33
2017-04-02T02:41:18.050Z,-2.29
2017-04-02T02:42:18.240Z,-2.37
2017-04-02T02:43:18.014Z,-2.35
2017-04-02T02:44:17.994Z,-2.33
2017-04-02T02:45:17.978Z,-2.4
2017-04-02T02:46:17.699Z,-2.41
2017-04-02T02:47:17.945Z,-2.33
2017-04-02T02:48:17.930Z,-2.35
2017-04-02T02:49:17.909Z,-2.21
2017-04-02T02:50:17.898Z,-2.38
2017-04-02T02:51:17.878Z,-2.29
2017-04-02T02:52:17.865Z,-2.37
2017-04-02T02:53:17.845Z,-2.4
2017-04-02T02:54:17.824Z,-2.33
2017-04-02T02:55:17.808Z,-2.37
2017-04-02T02:56:17.800Z,-2.59
2017-04-02T02:57:17.771Z,-2.56
2017-04-02T02:58:17.761Z,-2.55
2017-04-02T02:59:17.744Z,-2.53
2017-04-02T03:00:17.730Z,-2.47
2017-04-02T03:01:17.707Z,-2.48
2017-04-02T03:02:17.687Z,-2.48
2017-04-02T03:03:17.672Z,-2.53
2017-04-02T03:04:17.658Z,-2.64
2017-04-02T03:05:17.636Z,-2.74
2017-04-02T03:06:17.621Z,-2.83
2017-04-02T03:07:17.605Z,-2.76
2017-04-02T03:08:17.591Z,-2.68
2017-04-02T03:09:17.612Z,-2.66
2017-04-02T03:10:17.550Z,-2.79
2017-04-02T03:11:17.532Z,-2.74
2017-04-02T03:12:17.518Z,-2.69
2017-04-02T03:13:17.502Z,-2.69
2017-04-02T03:14:17.479Z,-2.61
2017-04-02T03:15:17.467Z,-2.71
2017-04-02T03:16:17.451Z,-2.79
2017-04-02T03:17:17.430Z,-2.83
2017-04-02T03:18:17.412Z,-2.65
2017-04-02T03:19:17.395Z,-2.72
2017-04-02T03:20:17.381Z,-2.77
2017-04-02T03:21:17.367Z,-2.69
2017-04-02T03:22:17.346Z,-2.82
2017-04-02T03:23:17.333Z,-2.83
2017-04-02T03:24:17.313Z,-2.89
2017-04-02T03:25:17.299Z,-2.86
2017-04-02T03:26:17.282Z,-2.71
2017-04-02T03:27:17.257Z,-2.72
2017-04-02T03:28:17.244Z,-2.83
2017-04-02T03:29:17.228Z,-2.84
2017-04-02T03:30:17.214Z,-2.82
2017-04-02T03:31:17.195Z,-2.71
2017-04-02T03:32:17.176Z,-2.74
2017-04-02T03:33:17.157Z,-2.61
2017-04-02T03:34:17.143Z,-2.72
2017-04-02T03:35:17.124Z,-2.68
2017-04-02T03:36:17.107Z,-2.82
2017-04-02T03:37:16.785Z,-2.8
2017-04-02T03:38:16.775Z,-2.82
2017-04-02T03:39:17.054Z,-2.79
2017-04-02T03:40:17.034Z,-2.76
2017-04-02T03:41:17.020Z,-2.89
2017-04-02T03:42:16.702Z,-2.82
2017-04-02T03:43:16.982Z,-2.93
2017-04-02T03:44:16.964Z,-3
2017-04-02T03:45:16.951Z,-3
2017-04-02T03:46:16.629Z,-2.84
2017-04-02T03:47:16.911Z,-2.86
2017-04-02T03:48:16.902Z,-2.86
2017-04-02T03:49:16.882Z,-2.71
2017-04-02T03:50:16.865Z,-2.69
2017-04-02T03:51:16.847Z,-2.58
2017-04-02T03:52:16.831Z,-2.46
2017-04-02T03:53:16.812Z,-2.33
2017-04-02T03:54:16.795Z,-2.22
2017-04-02T03:55:16.779Z,-2.16
2017-04-02T03:56:16.769Z,-2.28
2017-04-02T03:57:16.744Z,-2.4
2017-04-02T03:58:16.428Z,-2.58
2017-04-02T03:59:16.714Z,-2.74
2017-04-02T04:00:16.693Z,-2.94
2017-04-02T04:01:16.683Z,-3.1
2017-04-02T04:02:16.366Z,-3.02
2017-04-02T04:03:16.641Z,-3.1
2017-04-02T04:04:16.626Z,-3.1
2017-04-02T04:05:16.612Z,-3.08
2017-04-02T04:06:16.602Z,-3.13
2017-04-02T04:07:16.578Z,-3.13
2017-04-02T04:08:16.562Z,-3.13
2017-04-02T04:09:16.548Z,-3.01
2017-04-02T04:10:16.526Z,-2.9
2017-04-02T04:11:16.509Z,-2.8
2017-04-02T04:12:16.498Z,-2.72
2017-04-02T04:13:16.482Z,-2.65
2017-04-02T04:14:16.475Z,-2.82
2017-04-02T04:15:16.443Z,-2.86
2017-04-02T04:16:16.429Z,-2.89
2017-04-02T04:17:16.111Z,-2.93
2017-04-02T04:18:16.392Z,-2.94
2017-04-02T04:19:16.377Z,-3.02
2017-04-02T04:20:16.360Z,-3.12
2017-04-02T04:21:16.344Z,-3.18
2017-04-02T04:22:16.330Z,-3.1
2017-04-02T04:23:16.314Z,-3.08
2017-04-02T04:24:16.291Z,-3.08
2017-04-02T04:25:16.277Z,-3.07
2017-04-02T04:26:16.295Z,-3.1
2017-04-02T04:27:16.245Z,-2.98
2017-04-02T04:28:15.923Z,-3.08
2017-04-02T04:29:16.208Z,-2.95
2017-04-02T04:30:16.192Z,-2.93
2017-04-02T04:31:16.175Z,-2.86
2017-04-02T04:32:15.852Z,-2.94
2017-04-02T04:33:16.140Z,-2.98
2017-04-02T04:34:16.122Z,-3
2017-04-02T04:35:16.103Z,-3.08
2017-04-02T04:36:16.089Z,-3.02
2017-04-02T04:37:16.069Z,-3.07
2017-04-02T04:38:16.056Z,-2.87
2017-04-02T04:39:16.045Z,-2.87
2017-04-02T04:40:16.017Z,-2.83
2017-04-02T04:41:16.004Z,-2.86
2017-04-02T04:42:15.983Z,-2.84
2017-04-02T04:43:15.964Z,-2.71
2017-04-02T04:44:15.947Z,-2.8
2017-04-02T04:45:15.933Z,-2.71
2017-04-02T04:46:15.616Z,-2.77
2017-04-02T04:47:15.897Z,-2.71
2017-04-02T04:48:15.881Z,-2.69
2017-04-02T04:49:15.859Z,-2.71
2017-04-02T04:50:15.847Z,-2.72
2017-04-02T04:51:15.828Z,-2.69
2017-04-02T04:52:15.811Z,-2.64
2017-04-02T04:53:15.798Z,-2.69
2017-04-02T04:54:15.782Z,-2.69
2017-04-02T04:55:15.760Z,-2.72
2017-04-02T04:56:15.743Z,-2.65
2017-04-02T04:57:15.724Z,-2.59
2017-04-02T04:58:15.708Z,-2.64
2017-04-02T04:59:15.694Z,-2.59
2017-04-02T05:00:15.674Z,-2.5
2017-04-02T05:01:15.655Z,-2.48
2017-04-02T05:02:15.640Z,-2.46
2017-04-02T05:03:15.620Z,-2.33
2017-04-02T05:04:15.602Z,-2.44
2017-04-02T05:05:15.585Z,-2.28
2017-04-02T05:06:15.573Z,-2.03
2017-04-02T05:07:15.557Z,-1.88
2017-04-02T05:08:15.540Z,-1.74
2017-04-02T05:09:15.522Z,-1.77
2017-04-02T05:10:15.508Z,-1.89
2017-04-02T05:11:15.492Z,-2.08
2017-04-02T05:12:15.471Z,-2.11
2017-04-02T05:13:15.451Z,-2.06
2017-04-02T05:14:15.436Z,-1.96
2017-04-02T05:15:15.420Z,-1.75
2017-04-02T05:16:15.408Z,-1.78
2017-04-02T05:17:15.388Z,-1.78
2017-04-02T05:18:15.372Z,-1.72
2017-04-02T05:19:15.363Z,-1.8
2017-04-02T05:20:15.336Z,-1.74
2017-04-02T05:21:15.320Z,-1.89
2017-04-02T05:22:15.307Z,-1.98
2017-04-02T05:23:15.293Z,-1.98
2017-04-02T05:24:15.274Z,-1.95
2017-04-02T05:25:15.261Z,-1.88
2017-04-02T05:26:15.243Z,-1.86
2017-04-02T05:27:14.924Z,-1.64
2017-04-02T05:28:15.208Z,-1.64
2017-04-02T05:29:15.192Z,-1.59
2017-04-02T05:30:15.176Z,-1.67
2017-04-02T05:31:15.158Z,-1.83
2017-04-02T05:32:15.145Z,-1.74
2017-04-02T05:33:15.128Z,-1.53
2017-04-02T05:34:15.110Z,-1.32
2017-04-02T05:35:15.096Z,-1.15
2017-04-02T05:36:15.076Z,-0.96
2017-04-02T05:37:15.061Z,-0.9
2017-04-02T05:38:15.043Z,-0.62
2017-04-02T05:39:15.024Z,-0.37
2017-04-02T05:40:15.014Z,-0.16
2017-04-02T05:41:14.994Z,0.25
2017-04-02T05:42:14.978Z,0.68
2017-04-02T05:43:14.961Z,1.11
2017-04-02T05:44:14.950Z,1.28
2017-04-02T05:45:14.931Z,1.26
2017-04-02T05:46:14.911Z,1.25
2017-04-02T05:47:14.901Z,1
2017-04-02T05:48:14.878Z,0.96
2017-04-02T05:49:14.867Z,1.38
2017-04-02T05:50:14.854Z,1.42
2017-04-02T05:51:14.840Z,1.63
2017-04-02T05:52:14.820Z,1.79
2017-04-02T05:53:14.807Z,1.95
2017-04-02T05:54:14.794Z,2.53
2017-04-02T05:55:14.782Z,2.87
2017-04-02T05:56:14.797Z,3.39
2017-04-02T05:57:14.748Z,3.7
2017-04-02T05:58:14.731Z,3.86
2017-04-02T05:59:14.718Z,3.9
2017-04-02T06:00:14.702Z,3.98
2017-04-02T06:01:14.694Z,4.07
2017-04-02T06:02:14.676Z,3.89
2017-04-02T06:03:14.668Z,3.2
2017-04-02T06:04:14.347Z,3.46
2017-04-02T06:05:14.338Z,3.82
2017-04-02T06:06:14.624Z,4.07
2017-04-02T06:07:14.605Z,4.13
2017-04-02T06:08:14.592Z,4.32
2017-04-02T06:09:14.585Z,4.25
2017-04-02T06:10:14.569Z,4.43
2017-04-02T06:11:14.553Z,4.79
2017-04-02T06:12:14.554Z,5.09
2017-04-02T06:13:14.226Z,5.35
2017-04-02T06:14:14.217Z,5.35
2017-04-02T06:15:14.501Z,5.6
2017-04-02T06:16:14.195Z,5.69
2017-04-02T06:17:14.480Z,5.81
2017-04-02T06:18:14.463Z,5.9
2017-04-02T06:19:14.453Z,5.83
2017-04-02T06:20:14.438Z,5.45
2017-04-02T06:21:14.430Z,4.96
2017-04-02T06:22:14.415Z,4.62
2017-04-02T06:23:14.400Z,4.08
2017-04-02T06:24:14.385Z,2.97
2017-04-02T06:25:14.375Z,1.68
2017-04-02T06:26:14.362Z,0.93
2017-04-02T06:27:14.049Z,1.07
2017-04-02T06:28:14.033Z,0.92
2017-04-02T06:29:14.022Z,1
2017-04-02T06:30:13.710Z,1.46
2017-04-02T06:31:13.997Z,1.5
2017-04-02T06:32:13.983Z,1.77
2017-04-02T06:33:14.271Z,2.04
2017-04-02T06:34:13.652Z,2.05
2017-04-02T06:35:14.240Z,1.93
2017-04-02T06:36:14.234Z,1.71
2017-04-02T06:37:13.915Z,1.95
2017-04-02T06:38:14.205Z,1.98
2017-04-02T06:39:13.584Z,1.9
2017-04-02T06:40:14.180Z,1.83
2017-04-02T06:41:14.160Z,1.88
2017-04-02T06:42:13.848Z,1.64
2017-04-02T06:43:13.836Z,1.5
2017-04-02T06:44:13.518Z,1.24
2017-04-02T06:45:14.109Z,1.26
2017-04-02T06:46:14.095Z,1.26
2017-04-02T06:47:14.079Z,1.42
2017-04-02T06:48:14.065Z,1.67
2017-04-02T06:49:14.055Z,1.98
2017-04-02T06:50:14.039Z,2.07
2017-04-02T06:51:14.021Z,2.18
2017-04-02T06:52:14.019Z,2.37
2017-04-02T06:53:13.998Z,2.55
2017-04-02T06:54:13.987Z,2.79
2017-04-02T06:55:13.970Z,2.89
2017-04-02T06:56:13.954Z,2.79
2017-04-02T06:57:13.638Z,1.85
2017-04-02T06:58:13.923Z,1.63
2017-04-02T06:59:13.607Z,1.46
2017-04-02T07:00:13.894Z,1.6
2017-04-02T07:01:13.886Z,1.72
2017-04-02T07:02:13.864Z,2.15
2017-04-02T07:03:13.552Z,2.47
2017-04-02T07:04:13.844Z,2.56
2017-04-02T07:05:13.525Z,2.51
2017-04-02T07:06:13.511Z,2.18
2017-04-02T07:07:13.800Z,2.02
2017-04-02T07:08:13.482Z,1.56
2017-04-02T07:09:13.768Z,1.81
2017-04-02T07:10:13.458Z,2.47
2017-04-02T07:11:13.441Z,3.01
2017-04-02T07:12:13.428Z,3.26
2017-04-02T07:13:13.413Z,3.41
2017-04-02T07:14:13.700Z,3.68
2017-04-02T07:15:13.684Z,3.99
2017-04-02T07:16:13.672Z,3.82
2017-04-02T07:17:13.659Z,3.45
2017-04-02T07:18:13.644Z,2.77
2017-04-02T07:19:13.633Z,2.3
2017-04-02T07:20:13.618Z,2.32
2017-04-02T07:21:13.608Z,2.58
2017-04-02T07:22:13.290Z,2.99
2017-04-02T07:23:13.581Z,3.56
2017-04-02T07:24:13.562Z,4
2017-04-02T07:25:13.248Z,4.29
2017-04-02T07:26:13.535Z,4.35
2017-04-02T07:27:13.519Z,3.9
2017-04-02T07:28:13.508Z,2.77
2017-04-02T07:29:13.497Z,2.62
2017-04-02T07:30:13.478Z,2.55
2017-04-02T07:31:13.466Z,2.45
2017-04-02T07:32:13.454Z,2.83
2017-04-02T07:33:13.441Z,3.31
2017-04-02T07:34:13.428Z,3.28
2017-04-02T07:35:13.450Z,2.76
2017-04-02T07:36:13.403Z,2.68
2017-04-02T07:37:13.388Z,2.73
2017-04-02T07:38:13.371Z,2.36
2017-04-02T07:39:13.359Z,2.33
2017-04-02T07:40:13.352Z,2.62
2017-04-02T07:41:13.340Z,2.94
2017-04-02T07:42:13.320Z,3.02
2017-04-02T07:43:13.309Z,3.13
2017-04-02T07:44:13.293Z,3.35
2017-04-02T07:45:13.284Z,3.37
2017-04-02T07:46:13.275Z,2.97
2017-04-02T07:47:13.251Z,2.74
2017-04-02T07:48:13.243Z,2.9
2017-04-02T07:49:13.227Z,3.19
2017-04-02T07:50:13.213Z,3.59
2017-04-02T07:51:13.202Z,3.46
2017-04-02T07:52:13.190Z,3.57
2017-04-02T07:53:13.176Z,3.63
2017-04-02T07:54:13.161Z,3.95
2017-04-02T07:55:13.148Z,3.95
2017-04-02T07:56:13.142Z,3.95
2017-04-02T07:57:13.128Z,4.21
2017-04-02T07:58:13.117Z,4.64
2017-04-02T07:59:13.099Z,4.59
2017-04-02T08:00:13.085Z,4.64
2017-04-02T08:01:13.079Z,5.08
2017-04-02T08:02:13.066Z,5.63
2017-04-02T08:03:13.051Z,5.56
2017-04-02T08:04:13.039Z,5.51
2017-04-02T08:05:13.029Z,6.08
2017-04-02T08:06:13.022Z,6.42
2017-04-02T08:07:13.003Z,6.5
2017-04-02T08:08:12.989Z,5.9
2017-04-02T08:09:12.984Z,4.71
2017-04-02T08:10:12.970Z,4.46
2017-04-02T08:11:12.660Z,4.86
2017-04-02T08:12:12.646Z,5.74
2017-04-02T08:13:12.936Z,6.14
2017-04-02T08:14:12.922Z,6.61
2017-04-02T08:15:12.913Z,6.54
2017-04-02T08:16:12.903Z,6.35
2017-04-02T08:17:12.892Z,6.63
2017-04-02T08:18:12.576Z,7.19
2017-04-02T08:19:12.867Z,7.12
2017-04-02T08:20:12.864Z,6.35
2017-04-02T08:21:12.847Z,6.71
2017-04-02T08:22:12.544Z,5.96
2017-04-02T08:23:12.830Z,5.63
2017-04-02T08:24:12.815Z,6.42
2017-04-02T08:25:12.503Z,7.16
2017-04-02T08:26:12.798Z,7.95
2017-04-02T08:27:12.787Z,8.46
2017-04-02T08:28:12.780Z,8.93
2017-04-02T08:29:12.463Z,9.37
2017-04-02T08:30:12.755Z,9.77
2017-04-02T08:31:12.750Z,8.36
2017-04-02T08:32:12.737Z,7.42
2017-04-02T08:33:12.729Z,7.6
2017-04-02T08:34:12.721Z,6.75
2017-04-02T08:35:12.709Z,5.42
2017-04-02T08:36:12.701Z,6.05
2017-04-02T08:37:12.692Z,6.2
2017-04-02T08:38:12.678Z,6.63
2017-04-02T08:39:12.665Z,6.93
2017-04-02T08:40:12.656Z,7.14
2017-04-02T08:41:12.648Z,6.83
2017-04-02T08:42:12.641Z,5.6
2017-04-02T08:43:12.629Z,5.55
2017-04-02T08:44:12.619Z,5.74
2017-04-02T08:45:12.608Z,6.54
2017-04-02T08:46:12.600Z,7.01
2017-04-02T08:47:12.590Z,7.51
2017-04-02T08:48:12.577Z,7.57
2017-04-02T08:49:12.564Z,7.71
2017-04-02T08:50:12.556Z,7.54
2017-04-02T08:51:12.546Z,7.39
2017-04-02T08:52:12.538Z,7.29
2017-04-02T08:53:12.526Z,7.54
2017-04-02T08:54:12.516Z,8.02
2017-04-02T08:55:12.202Z,7.6
2017-04-02T08:56:12.492Z,6.86
2017-04-02T08:57:12.482Z,6.38
2017-04-02T08:58:12.474Z,6.36
2017-04-02T08:59:12.461Z,6.58
2017-04-02T09:00:11.846Z,6.54
2017-04-02T09:01:12.444Z,5.59
2017-04-02T09:02:12.440Z,5.11
2017-04-02T09:03:12.419Z,5.15
2017-04-02T09:04:12.412Z,5.85
2017-04-02T09:05:12.398Z,6.32
2017-04-02T09:06:12.389Z,6.53
2017-04-02T09:07:12.377Z,7.23
2017-04-02T09:08:12.064Z,7.99
2017-04-02T09:09:12.354Z,8.6
2017-04-02T09:10:12.347Z,7.54
2017-04-02T09:11:12.330Z,6.89
2017-04-02T09:12:12.322Z,6.75
2017-04-02T09:13:12.309Z,6.32
2017-04-02T09:14:12.298Z,5.37
2017-04-02T09:15:12.291Z,4.14
2017-04-02T09:16:12.276Z,3.84
2017-04-02T09:17:12.268Z,2.77
2017-04-02T09:18:12.255Z,2.92
2017-04-02T09:19:12.240Z,2.84
2017-04-02T09:20:11.933Z,3.6
2017-04-02T09:21:12.212Z,4.39
2017-04-02T09:22:12.204Z,4.51
2017-04-02T09:23:12.191Z,5.38
2017-04-02T09:24:12.179Z,6.08
2017-04-02T09:25:12.210Z,4.86
2017-04-02T09:26:11.858Z,4.83
2017-04-02T09:27:12.151Z,4.87
2017-04-02T09:28:12.143Z,5.38
2017-04-02T09:29:12.122Z,5.93
2017-04-02T09:30:12.108Z,6.57
2017-04-02T09:31:12.095Z,6.57
2017-04-02T09:32:11.783Z,6.55
2017-04-02T09:33:12.074Z,6.36
2017-04-02T09:34:11.758Z,6.57
2017-04-02T09:35:12.046Z,6.03
2017-04-02T09:36:11.738Z,5.42
2017-04-02T09:37:12.031Z,5.37
2017-04-02T09:38:12.015Z,5.56
2017-04-02T09:39:11.997Z,5.88
2017-04-02T09:40:11.987Z,5.99
2017-04-02T09:41:11.975Z,5.27
2017-04-02T09:42:11.661Z,3.37
2017-04-02T09:43:11.947Z,3.01
2017-04-02T09:44:11.939Z,3.2
2017-04-02T09:45:11.927Z,2.48
2017-04-02T09:46:11.913Z,2.53
2017-04-02T09:47:11.896Z,2.71
2017-04-02T09:48:11.583Z,2.87
2017-04-02T09:49:11.873Z,3.12
2017-04-02T09:50:11.875Z,2.9
2017-04-02T09:51:11.847Z,2.8
2017-04-02T09:52:11.835Z,3.01
2017-04-02T09:53:11.822Z,3.26
2017-04-02T09:54:11.809Z,3.81
2017-04-02T09:55:11.827Z,3.82
2017-04-02T09:56:11.484Z,3.81
2017-04-02T09:57:11.769Z,3.49
2017-04-02T09:58:11.755Z,3.82
2017-04-02T09:59:11.744Z,2.61
2017-04-02T10:00:11.734Z,1.7
2017-04-02T10:01:11.715Z,1.67
2017-04-02T10:02:11.405Z,2.69
2017-04-02T10:03:11.391Z,3.28
2017-04-02T10:04:11.680Z,3.39
2017-04-02T10:05:11.666Z,3.78
2017-04-02T10:06:11.651Z,4.36
2017-04-02T10:07:11.635Z,4.36
2017-04-02T10:08:11.621Z,4.46
2017-04-02T10:09:11.611Z,4.21
2017-04-02T10:10:11.595Z,4.2
2017-04-02T10:11:11.582Z,3.77
2017-04-02T10:12:11.568Z,3.7
2017-04-02T10:13:11.254Z,4.04
2017-04-02T10:14:10.937Z,4.36
2017-04-02T10:15:11.531Z,4.13
2017-04-02T10:16:11.513Z,3.42
2017-04-02T10:17:11.509Z,3.26
2017-04-02T10:18:11.188Z,3.57
2017-04-02T10:19:11.479Z,4.32
2017-04-02T10:20:11.162Z,4.67
2017-04-02T10:21:11.459Z,5.12
2017-04-02T10:22:11.442Z,4.69
2017-04-02T10:23:11.424Z,5.14
2017-04-02T10:24:11.407Z,6.13
2017-04-02T10:25:11.095Z,6.78
2017-04-02T10:26:11.390Z,7.14
2017-04-02T10:27:11.373Z,6.99
2017-04-02T10:28:11.362Z,7.51
2017-04-02T10:29:11.347Z,5.9
2017-04-02T10:30:11.338Z,6.03
2017-04-02T10:31:11.326Z,6.25
2017-04-02T10:32:11.315Z,6.03
2017-04-02T10:33:11.304Z,5.84
2017-04-02T10:34:11.295Z,5.85
2017-04-02T10:35:11.277Z,5.77
2017-04-02T10:36:11.269Z,5.98
2017-04-02T10:37:11.252Z,6.9
2017-04-02T10:38:10.939Z,7.04
2017-04-02T10:39:11.233Z,6.17
2017-04-02T10:40:11.222Z,5.05
2017-04-02T10:41:11.211Z,4.64
2017-04-02T10:42:11.199Z,5.14
2017-04-02T10:43:11.186Z,5.83
2017-04-02T10:44:11.176Z,5.78
2017-04-02T10:45:11.162Z,6.5
2017-04-02T10:46:11.160Z,7
2017-04-02T10:47:11.137Z,6.97
2017-04-02T10:48:11.129Z,7.48
2017-04-02T10:49:11.121Z,7.99
2017-04-02T10:50:11.103Z,8.02
2017-04-02T10:51:11.095Z,7.57
2017-04-02T10:52:11.088Z,7.6
2017-04-02T10:53:11.075Z,7.7
2017-04-02T10:54:11.063Z,7.32
2017-04-02T10:55:11.052Z,6.72
2017-04-02T10:56:11.042Z,6.69
2017-04-02T10:57:11.042Z,6.17
2017-04-02T10:58:10.720Z,6.73
2017-04-02T10:59:11.018Z,7.39
2017-04-02T11:00:11.002Z,7.81
2017-04-02T11:01:10.993Z,8.65
2017-04-02T11:02:10.980Z,9.08
2017-04-02T11:03:10.972Z,8.29
2017-04-02T11:04:10.961Z,7.86
2017-04-02T11:05:10.997Z,6.69
2017-04-02T11:06:10.941Z,6.39
2017-04-02T11:07:10.933Z,6.3
2017-04-02T11:08:10.918Z,5.84
2017-04-02T11:09:10.911Z,5.41
2017-04-02T11:10:10.901Z,5.6
2017-04-02T11:11:10.591Z,5.67
2017-04-02T11:12:10.883Z,4.75
2017-04-02T11:13:10.868Z,4.88
2017-04-02T11:14:10.860Z,5.19
2017-04-02T11:15:10.843Z,5.33
2017-04-02T11:16:10.531Z,4.75
2017-04-02T11:17:10.821Z,4.96
2017-04-02T11:18:10.813Z,5.63
2017-04-02T11:19:10.797Z,6.38
2017-04-02T11:20:10.487Z,5.93
2017-04-02T11:21:10.776Z,6.28
2017-04-02T11:22:10.766Z,5.74
2017-04-02T11:23:10.759Z,6.21
2017-04-02T11:24:10.436Z,6.14
2017-04-02T11:25:10.426Z,6.83
2017-04-02T11:26:10.720Z,7.16
2017-04-02T11:27:10.712Z,7
2017-04-02T11:28:10.700Z,7.54
2017-04-02T11:29:10.692Z,8.31
2017-04-02T11:30:10.371Z,8.89
2017-04-02T11:31:10.670Z,9.1
2017-04-02T11:32:10.657Z,9.53
2017-04-02T11:33:10.644Z,9.91
2017-04-02T11:34:10.336Z,10.22
2017-04-02T11:35:10.632Z,10.55
2017-04-02T11:36:10.618Z,10.73
2017-04-02T11:37:10.606Z,10.52
2017-04-02T11:38:10.596Z,10.24
2017-04-02T11:39:10.588Z,9.89
2017-04-02T11:40:10.580Z,10.16
2017-04-02T11:41:10.565Z,10.1
2017-04-02T11:42:10.258Z,10.16
2017-04-02T11:43:10.557Z,10.31
2017-04-02T11:44:10.240Z,10.63
2017-04-02T11:45:10.539Z,10.14
2017-04-02T11:46:10.530Z,9.06
2017-04-02T11:47:10.518Z,8.93
2017-04-02T11:48:10.512Z,9
2017-04-02T11:49:10.502Z,8.36
2017-04-02T11:50:10.493Z,8.63
2017-04-02T11:51:10.487Z,9.26
2017-04-02T11:52:10.472Z,9.32
2017-04-02T11:53:10.466Z,9.01
2017-04-02T11:54:10.453Z,9.3
2017-04-02T11:55:10.448Z,9.3
2017-04-02T11:56:10.439Z,9.67
2017-04-02T11:57:10.430Z,9.95
2017-04-02T11:58:10.426Z,10.2
2017-04-02T11:59:10.410Z,10.26
2017-04-02T12:00:10.404Z,10.57
2017-04-02T12:01:10.394Z,10.52
2017-04-02T12:02:10.085Z,10.65
2017-04-02T12:03:10.378Z,10.81
2017-04-02T12:04:10.366Z,10.55
2017-04-02T12:05:10.361Z,10.62
2017-04-02T12:06:10.353Z,10.62
2017-04-02T12:07:10.345Z,10.17
2017-04-02T12:08:10.034Z,9.78
2017-04-02T12:09:10.327Z,9.93
2017-04-02T12:10:10.318Z,9.78
2017-04-02T12:11:10.011Z,9.8
2017-04-02T12:12:09.697Z,8.78
2017-04-02T12:13:10.296Z,8.37
2017-04-02T12:14:10.285Z,8.32
2017-04-02T12:15:10.272Z,8.93
2017-04-02T12:16:10.265Z,8.45
2017-04-02T12:17:10.255Z,8.34
2017-04-02T12:18:10.248Z,8.68
2017-04-02T12:19:09.937Z,9.49
2017-04-02T12:20:10.230Z,9.65
2017-04-02T12:21:10.222Z,10.1
2017-04-02T12:22:10.216Z,9.22
2017-04-02T12:23:10.206Z,8.34
2017-04-02T12:24:10.194Z,8.49
2017-04-02T12:25:10.184Z,8.52
2017-04-02T12:26:10.178Z,8.13
2017-04-02T12:27:09.867Z,8.21
2017-04-02T12:28:09.559Z,8.13
2017-04-02T12:29:10.150Z,7.52
2017-04-02T12:30:09.877Z,7.48
2017-04-02T12:31:10.139Z,7.51
2017-04-02T12:32:10.129Z,7.58
2017-04-02T12:33:10.118Z,8.02
2017-04-02T12:34:09.805Z,8.45
2017-04-02T12:35:10.140Z,8.14
2017-04-02T12:36:09.786Z,7.18
2017-04-02T12:37:10.086Z,6.32
2017-04-02T12:38:10.073Z,5.8
2017-04-02T12:39:10.059Z,5.7
2017-04-02T12:40:10.057Z,5.45
2017-04-02T12:41:10.050Z,5.29
2017-04-02T12:42:10.032Z,5.51
2017-04-02T12:43:10.021Z,5.77
2017-04-02T12:44:10.011Z,6.24
2017-04-02T12:45:10.004Z,7.29
2017-04-02T12:46:09.698Z,8.14
2017-04-02T12:47:09.987Z,8.36
2017-04-02T12:48:09.669Z,7.84
2017-04-02T12:49:09.665Z,7.54
2017-04-02T12:50:09.953Z,8.04
2017-04-02T12:51:09.944Z,8.03
2017-04-02T12:52:09.632Z,7.73
2017-04-02T12:53:09.927Z,7.5
2017-04-02T12:54:09.609Z,7.07
2017-04-02T12:55:09.908Z,6.06
2017-04-02T12:56:09.899Z,5.47
2017-04-02T12:57:09.884Z,5.44
2017-04-02T12:58:09.873Z,5.7
2017-04-02T12:59:09.865Z,6.08
2017-04-02T13:00:09.550Z,6.01
2017-04-02T13:01:09.849Z,6.72
2017-04-02T13:02:09.836Z,6.61
2017-04-02T13:03:09.823Z,6.35
2017-04-02T13:04:09.511Z,6.17
2017-04-02T13:05:09.804Z,6.19
2017-04-02T13:06:09.797Z,5.98
2017-04-02T13:07:09.786Z,5.85
2017-04-02T13:08:09.773Z,4.44
2017-04-02T13:09:09.760Z,3.72
2017-04-02T13:10:09.754Z,3.63